Terminal Aerodrome Forecast
Issued by NWS

Home | Current Version | Previous Version | Graphics & Text | Print | Product List | Glossary On
Versions: 1 2 3 4 5 6 7 8 9 10 11 12 13 14 15 16 17 18
000
FTUS43 KICT 231200 AAA
TAFHUT
TAF AMD
KHUT 231203Z 2312/2412 03007KT P6SM BKN250
      TEMPO 2312/2314 5SM BR BKN006
     FM231700 07005KT P6SM SCT250
     FM240000 VRB05KT P6SM SCT250=

USA.gov is the U.S. government's official web portal to all federal, state and local government web resources and services.